Time;durP1;ratioP1;P1;durP2;ratioP2;P2;SDS_P1;SDS_P2;PMS_P1;PMS_P2;Temp;Humidity;BMP_temperature;BMP_pressure;BME280_temperature;BME280_humidity;BME280_pressure;Samples;Min_cycle;Max_cycle;Signal;HPM_P1;HPM_P2
2023/04/02 00:00:08;;;;;;;5.40;4.47;;;8.60;99.90;;;;;;4990771;28;20218;-49
2023/04/02 00:02:48;;;;;;;4.72;4.18;;;8.60;99.90;;;;;;4990229;28;20169;-51
2023/04/02 00:05:19;;;;;;;4.05;3.65;;;8.60;99.90;;;;;;4990642;28;20196;-52
2023/04/02 00:07:50;;;;;;;4.25;3.85;;;8.60;99.90;;;;;;4990256;28;20700;-45
2023/04/02 00:10:33;;;;;;;4.63;4.22;;;8.60;99.90;;;;;;4990626;28;20571;-45
2023/04/02 00:13:02;;;;;;;4.63;3.95;;;8.60;99.90;;;;;;4990005;28;20220;-46
2023/04/02 00:15:29;;;;;;;7.38;4.93;;;8.60;99.90;;;;;;4990449;28;20185;-46
2023/04/02 00:17:55;;;;;;;6.05;5.45;;;8.60;99.90;;;;;;4990365;28;20207;-46
2023/04/02 00:20:21;;;;;;;5.85;5.05;;;8.60;99.90;;;;;;4990209;28;20177;-46
2023/04/02 00:22:48;;;;;;;7.55;5.70;;;8.60;99.90;;;;;;4990326;28;20173;-46
2023/04/02 00:25:14;;;;;;;5.97;4.90;;;8.50;99.90;;;;;;4976248;28;20534;-45
2023/04/02 00:27:41;;;;;;;7.45;5.15;;;8.40;99.90;;;;;;4971413;28;20252;-45
2023/04/02 00:30:07;;;;;;;4.47;3.60;;;8.40;99.90;;;;;;4970967;28;20170;-47
2023/04/02 00:32:35;;;;;;;5.45;4.93;;;8.50;99.90;;;;;;4970490;28;20703;-45
2023/04/02 00:35:01;;;;;;;6.55;5.18;;;8.50;99.90;;;;;;4970712;28;20178;-45
2023/04/02 00:37:37;;;;;;;5.60;5.10;;;8.50;99.90;;;;;;4970713;28;20169;-45
2023/04/02 00:40:23;;;;;;;6.88;4.60;;;8.40;99.90;;;;;;4970891;28;20172;-45
2023/04/02 00:42:51;;;;;;;6.05;4.05;;;8.30;99.90;;;;;;4970412;28;20671;-46
2023/04/02 00:45:27;;;;;;;4.03;3.60;;;8.50;99.90;;;;;;4970443;28;20205;-46
2023/04/02 00:47:54;;;;;;;3.92;3.63;;;8.40;99.90;;;;;;4970590;28;20166;-46
2023/04/02 00:50:33;;;;;;;4.00;3.60;;;8.40;99.90;;;;;;4970316;28;20173;-45
2023/04/02 00:53:07;;;;;;;6.22;3.15;;;8.30;99.90;;;;;;4969281;28;20318;-46
2023/04/02 00:55:38;;;;;;;5.20;4.40;;;8.40;99.90;;;;;;4985177;28;20599;-45
2023/04/02 00:58:26;;;;;;;4.50;3.08;;;8.40;99.90;;;;;;4970688;28;20526;-45
2023/04/02 01:00:52;;;;;;;3.45;3.00;;;;;;;;;;4970184;28;20177;-46
2023/04/02 01:03:18;;;;;;;3.65;3.33;;;8.20;99.90;;;;;;4970353;28;20166;-46
2023/04/02 01:05:50;;;;;;;4.10;3.55;;;8.40;99.90;;;;;;4970199;28;20646;-45
2023/04/02 01:08:23;;;;;;;3.60;3.30;;;8.30;99.90;;;;;;4969947;28;20292;-45
2023/04/02 01:11:03;;;;;;;4.43;3.55;;;8.40;99.90;;;;;;4969889;28;20258;-45
2023/04/02 01:13:44;;;;;;;3.28;2.97;;;8.30;99.90;;;;;;4970061;28;20559;-45
2023/04/02 01:16:31;;;;;;;4.63;3.55;;;8.30;99.90;;;;;;4970587;28;20176;-45
2023/04/02 01:19:07;;;;;;;3.95;3.55;;;8.20;99.90;;;;;;4970300;28;20180;-46
2023/04/02 01:21:33;;;;;;;4.18;3.78;;;;;;;;;;4970142;28;20177;-45
2023/04/02 01:24:30;;;;;;;3.83;3.40;;;8.20;99.90;;;;;;4973130;28;20247;-46
2023/04/02 01:26:58;;;;;;;5.97;3.90;;;8.20;99.90;;;;;;5000492;28;20662;-45
2023/04/02 01:29:32;;;;;;;4.65;4.13;;;8.10;99.90;;;;;;4989213;28;20531;-45
2023/04/02 01:32:03;;;;;;;5.50;3.85;;;8.10;99.90;;;;;;4989064;28;20212;-47
2023/04/02 01:34:29;;;;;;;4.93;4.40;;;8.10;99.90;;;;;;4989194;28;20164;-45
2023/04/02 01:36:55;;;;;;;3.92;3.50;;;8.00;99.90;;;;;;4989055;28;20172;-47
2023/04/02 01:39:32;;;;;;;4.47;4.07;;;8.10;99.90;;;;;;4989086;28;20222;-46
2023/04/02 01:42:04;;;;;;;5.30;4.53;;;8.00;99.90;;;;;;4989089;28;20173;-46
2023/04/02 01:44:49;;;;;;;7.15;4.90;;;8.00;99.90;;;;;;4987919;28;20259;-45
2023/04/02 01:47:18;;;;;;;5.32;4.82;;;8.00;99.90;;;;;;4989049;28;20640;-45
2023/04/02 01:49:45;;;;;;;5.53;4.95;;;8.00;99.90;;;;;;4988998;28;20191;-46
2023/04/02 01:52:25;;;;;;;5.32;4.82;;;8.00;99.90;;;;;;4989239;28;20216;-46
2023/04/02 01:54:51;;;;;;;5.10;4.60;;;8.00;99.90;;;;;;4978567;28;20209;-46
2023/04/02 01:57:17;;;;;;;4.65;4.10;;;8.00;99.90;;;;;;4969482;28;20188;-47
2023/04/02 01:59:44;;;;;;;6.00;5.40;;;8.00;99.90;;;;;;4969610;28;20252;-50
2023/04/02 02:02:12;;;;;;;5.72;5.05;;;7.90;99.90;;;;;;4969864;28;20261;-47
2023/04/02 02:04:39;;;;;;;6.75;6.05;;;7.90;99.90;;;;;;4969941;28;20180;-46
2023/04/02 02:07:09;;;;;;;7.00;5.97;;;7.90;99.90;;;;;;4969281;28;20178;-46
2023/04/02 02:09:35;;;;;;;7.20;6.40;;;7.90;99.90;;;;;;4969444;28;20199;-46
2023/04/02 02:12:02;;;;;;;6.97;5.72;;;8.00;99.90;;;;;;4969551;28;20221;-50
2023/04/02 02:14:30;;;;;;;8.02;6.82;;;7.90;99.90;;;;;;4970578;28;20172;-48
2023/04/02 02:17:01;;;;;;;5.85;5.25;;;7.80;99.90;;;;;;4967889;28;20180;-46
2023/04/02 02:19:27;;;;;;;8.55;5.88;;;;;;;;;;4969042;28;20166;-46
2023/04/02 02:22:23;;;;;;;10.20;6.55;;;7.90;99.90;;;;;;4969543;28;20534;-46
2023/04/02 02:24:49;;;;;;;7.63;6.18;;;;;;;;;;4970923;28;20193;-46
2023/04/02 02:27:26;;;;;;;8.00;5.95;;;7.80;99.90;;;;;;4969159;28;20272;-46
2023/04/02 02:30:11;;;;;;;6.93;5.95;;;7.80;99.90;;;;;;4969250;28;20169;-46
2023/04/02 02:32:45;;;;;;;6.38;5.63;;;7.80;99.90;;;;;;4969295;28;20211;-52
2023/04/02 02:35:29;;;;;;;8.05;5.55;;;7.70;99.90;;;;;;4969253;28;20183;-48
2023/04/02 02:38:05;;;;;;;8.13;5.13;;;7.70;99.90;;;;;;4972052;28;20176;-53
2023/04/02 02:40:38;;;;;;;7.45;5.95;;;7.70;99.90;;;;;;4972292;28;20165;-52
2023/04/02 02:43:08;;;;;;;8.70;6.53;;;7.70;99.90;;;;;;4972314;28;20170;-48
2023/04/02 02:45:37;;;;;;;8.95;6.55;;;7.70;99.90;;;;;;4971212;28;20633;-51
2023/04/02 02:48:05;;;;;;;7.72;6.57;;;7.60;99.90;;;;;;4972522;28;20512;-49
2023/04/02 02:50:32;;;;;;;7.70;6.68;;;7.60;99.90;;;;;;4971957;28;20162;-52
2023/04/02 02:53:01;;;;;;;8.63;7.78;;;7.60;99.90;;;;;;4980336;28;20195;-52
2023/04/02 02:55:37;;;;;;;7.82;6.57;;;7.70;99.90;;;;;;4991154;28;20177;-53
2023/04/02 02:58:08;;;;;;;7.25;6.38;;;7.50;99.90;;;;;;4991140;28;20180;-52
2023/04/02 03:00:35;;;;;;;7.10;5.93;;;7.40;99.90;;;;;;4991462;28;20187;-53
2023/04/02 03:03:06;;;;;;;7.90;6.63;;;7.50;99.90;;;;;;4991365;28;20168;-50
2023/04/02 03:05:32;;;;;;;5.45;4.95;;;7.40;99.90;;;;;;4991356;28;20165;-45
2023/04/02 03:08:02;;;;;;;4.70;4.20;;;7.40;99.90;;;;;;4991096;28;20572;-47
2023/04/02 03:10:43;;;;;;;6.40;4.68;;;7.40;99.90;;;;;;4991144;28;20169;-46
2023/04/02 03:13:26;;;;;;;4.82;4.32;;;7.40;99.90;;;;;;4991919;28;20274;-45
2023/04/02 03:16:01;;;;;;;5.15;4.65;;;7.40;99.90;;;;;;4972050;28;20204;-46
2023/04/02 03:18:55;;;;;;;5.60;5.10;;;7.30;99.90;;;;;;4971710;28;20645;-45
2023/04/02 03:21:23;;;;;;;3.72;3.38;;;7.30;99.90;;;;;;4971599;28;20177;-46
2023/04/02 03:24:08;;;;;;;4.22;3.83;;;7.30;99.90;;;;;;4971619;28;20161;-43
2023/04/02 03:26:41;;;;;;;4.03;3.47;;;7.20;99.90;;;;;;4971628;28;20176;-42
2023/04/02 03:29:25;;;;;;;3.60;3.15;;;7.30;99.90;;;;;;4971930;28;20236;-46
2023/04/02 03:31:59;;;;;;;4.65;4.13;;;7.30;99.90;;;;;;4971351;28;20565;-43
2023/04/02 03:34:32;;;;;;;5.78;4.85;;;7.30;99.90;;;;;;4971707;28;20187;-44
2023/04/02 03:37:06;;;;;;;7.50;4.82;;;7.30;99.90;;;;;;4971185;28;20204;-42
2023/04/02 03:39:37;;;;;;;7.53;5.38;;;7.30;99.90;;;;;;4971401;28;20168;-44
2023/04/02 03:42:06;;;;;;;5.00;4.50;;;7.30;99.90;;;;;;4970856;28;20169;-42
2023/04/02 03:44:43;;;;;;;4.25;3.75;;;7.20;99.90;;;;;;4981488;28;20260;-43
2023/04/02 03:47:41;;;;;;;4.18;3.58;;;7.10;99.90;;;;;;4975285;28;20180;-43
2023/04/02 03:50:21;;;;;;;4.78;3.75;;;7.10;99.90;;;;;;4971478;28;20165;-43
2023/04/02 03:52:47;;;;;;;3.85;3.45;;;7.10;99.90;;;;;;4971088;28;20562;-42
2023/04/02 03:55:23;;;;;;;2.97;2.78;;;7.00;99.90;;;;;;4971202;28;20197;-42
2023/04/02 03:58:15;;;;;;;3.45;3.15;;;7.00;99.90;;;;;;4971223;28;20173;-43
2023/04/02 04:00:51;;;;;;;4.20;3.80;;;7.10;99.90;;;;;;4971407;28;20174;-43
2023/04/02 04:03:19;;;;;;;4.35;3.70;;;7.10;99.90;;;;;;4969968;28;20177;-49
2023/04/02 04:05:59;;;;;;;3.83;3.47;;;7.00;99.90;;;;;;4971189;28;20184;-43
2023/04/02 04:08:50;;;;;;;4.22;3.17;;;7.00;99.90;;;;;;4970918;28;20308;-42
2023/04/02 04:11:21;;;;;;;4.03;3.72;;;7.10;99.90;;;;;;4983775;28;20673;-43
2023/04/02 04:14:05;;;;;;;4.32;3.22;;;7.00;99.90;;;;;;4975233;28;20193;-42
2023/04/02 04:16:55;;;;;;;5.05;4.00;;;7.00;99.90;;;;;;4989953;28;20175;-43
2023/04/02 04:19:48;;;;;;;4.13;3.65;;;7.00;99.90;;;;;;4990242;28;20217;-43
2023/04/02 04:22:29;;;;;;;4.47;3.97;;;7.00;99.90;;;;;;5020291;28;20191;-43
2023/04/02 04:24:56;;;;;;;3.83;3.53;;;6.90;99.90;;;;;;4990291;28;20184;-43
2023/04/02 04:27:32;;;;;;;5.93;3.25;;;6.90;99.90;;;;;;4990119;28;20165;-42
2023/04/02 04:30:17;;;;;;;4.15;3.45;;;7.00;99.90;;;;;;4989867;28;20548;-44
2023/04/02 04:33:09;;;;;;;4.78;3.22;;;6.90;99.90;;;;;;4990190;28;20212;-43
2023/04/02 04:35:48;;;;;;;3.70;3.30;;;6.80;99.90;;;;;;4990101;28;20172;-43
2023/04/02 04:38:20;;;;;;;5.10;3.22;;;6.90;99.90;;;;;;4989983;28;20192;-42
2023/04/02 04:40:52;;;;;;;4.75;4.10;;;6.90;99.90;;;;;;4990138;28;20222;-43
2023/04/02 04:43:41;;;;;;;5.13;4.50;;;6.90;99.90;;;;;;4989686;28;20172;-42
2023/04/02 04:46:15;;;;;;;5.47;4.20;;;6.90;99.90;;;;;;4970724;28;20197;-42
2023/04/02 04:48:40;;;;;;;5.53;4.93;;;6.80;99.90;;;;;;4970681;28;20166;-43
2023/04/02 04:51:43;;;;;;;5.03;4.13;;;6.80;99.90;;;;;;4970503;28;20539;-43
2023/04/02 04:54:13;;;;;;;6.00;4.93;;;6.80;99.90;;;;;;5010917;28;20185;-43
2023/04/02 04:56:39;;;;;;;5.30;4.80;;;6.80;99.90;;;;;;4970782;28;20181;-44
2023/04/02 04:59:26;;;;;;;4.55;4.15;;;6.80;99.90;;;;;;4970234;28;20177;-42
2023/04/02 05:02:04;;;;;;;5.32;4.82;;;6.70;99.90;;;;;;4970128;28;20193;-43
2023/04/02 05:04:34;;;;;;;6.53;5.38;;;6.70;99.90;;;;;;4970382;28;20261;-45
2023/04/02 05:07:17;;;;;;;6.43;5.10;;;6.80;99.90;;;;;;4969235;28;20177;-43
2023/04/02 05:10:18;;;;;;;5.90;4.72;;;6.70;99.90;;;;;;4970097;28;20185;-45
2023/04/02 05:13:10;;;;;;;4.30;3.90;;;6.60;99.90;;;;;;4973569;28;20216;-45
2023/04/02 05:16:03;;;;;;;5.35;4.43;;;6.60;99.90;;;;;;4988308;28;20172;-46
2023/04/02 05:18:39;;;;;;;4.93;4.25;;;6.60;99.90;;;;;;4989332;28;20202;-46
2023/04/02 05:21:26;;;;;;;6.07;3.85;;;6.60;99.90;;;;;;4989570;28;20168;-46
2023/04/02 05:24:28;;;;;;;5.28;3.67;;;6.50;99.90;;;;;;4989237;28;20508;-45
2023/04/02 05:27:00;;;;;;;5.03;4.03;;;6.50;99.90;;;;;;4989205;28;20165;-46
2023/04/02 05:29:32;;;;;;;3.80;3.20;;;6.40;99.90;;;;;;4989235;28;20165;-45
2023/04/02 05:32:34;;;;;;;4.53;3.65;;;6.40;99.90;;;;;;4989122;28;20700;-45
2023/04/02 05:35:04;;;;;;;6.00;3.92;;;6.40;99.90;;;;;;4988991;28;20161;-51
2023/04/02 05:37:30;;;;;;;5.07;3.33;;;6.40;99.90;;;;;;4989250;28;20177;-46
2023/04/02 05:39:59;;;;;;;6.28;3.88;;;6.40;99.90;;;;;;4979855;28;20279;-48
2023/04/02 05:42:29;;;;;;;4.32;3.72;;;6.40;99.90;;;;;;4969524;28;20170;-48
2023/04/02 05:45:06;;;;;;;5.70;4.55;;;6.40;99.90;;;;;;4969577;28;20665;-45
2023/04/02 05:47:33;;;;;;;7.15;5.18;;;6.60;99.90;;;;;;4969814;28;20642;-46
2023/04/02 05:50:08;;;;;;;6.65;5.32;;;6.50;99.90;;;;;;4969709;28;20181;-45
2023/04/02 05:52:42;;;;;;;9.52;6.90;;;6.60;99.90;;;;;;4969155;28;20220;-48
2023/04/02 05:55:11;;;;;;;8.82;6.68;;;6.60;99.90;;;;;;4969811;28;20581;-46
2023/04/02 05:57:49;;;;;;;8.48;7.57;;;6.60;99.90;;;;;;4969980;28;20177;-46
2023/04/02 06:00:21;;;;;;;8.63;6.95;;;6.50;99.90;;;;;;4969439;28;20169;-48
2023/04/02 06:02:54;;;;;;;10.25;7.13;;;6.40;99.90;;;;;;4969443;28;20196;-46
2023/04/02 06:05:24;;;;;;;9.82;8.82;;;6.40;99.90;;;;;;4969194;28;20248;-46
2023/04/02 06:08:24;;;;;;;8.25;7.45;;;6.40;99.90;;;;;;4969220;28;20215;-49
2023/04/02 06:10:58;;;;;;;7.95;6.93;;;6.20;99.90;;;;;;4966103;28;20189;-47
2023/04/02 06:13:24;;;;;;;10.23;6.22;;;6.20;99.90;;;;;;4953468;28;20209;-49
2023/04/02 06:15:50;;;;;;;9.35;6.65;;;6.20;99.90;;;;;;4953534;28;20201;-47
2023/04/02 06:18:27;;;;;;;8.93;7.18;;;6.30;99.90;;;;;;4953361;28;20535;-48
2023/04/02 06:20:53;;;;;;;10.02;7.57;;;6.20;99.90;;;;;;4953251;28;20257;-49
2023/04/02 06:24:10;;;;;;;11.10;7.93;;;6.20;99.90;;;;;;4953098;28;20208;-51
2023/04/02 06:26:40;;;;;;;10.50;8.25;;;6.20;99.90;;;;;;5012788;28;20652;-47
2023/04/02 06:29:11;;;;;;;15.20;9.85;;;6.20;99.90;;;;;;4972736;28;20181;-47
2023/04/02 06:31:46;;;;;;;9.60;7.75;;;6.20;99.90;;;;;;4990589;28;20208;-48
2023/04/02 06:34:23;;;;;;;8.80;6.88;;;6.10;99.90;;;;;;4991839;28;20636;-46
2023/04/02 06:36:54;;;;;;;11.55;8.43;;;6.10;99.90;;;;;;4992020;28;20187;-50
2023/04/02 06:39:22;;;;;;;14.23;9.05;;;6.10;99.90;;;;;;4991788;28;20168;-52
2023/04/02 06:42:11;;;;;;;15.02;9.38;;;6.00;99.90;;;;;;4985976;28;20182;-52
2023/04/02 06:44:37;;;;;;;12.82;9.13;;;5.80;99.90;;;;;;5054549;28;20178;-51
2023/04/02 06:47:16;;;;;;;11.80;8.98;;;6.00;99.90;;;;;;5074050;28;20570;-49
2023/04/02 06:49:49;;;;;;;10.38;7.85;;;5.90;99.90;;;;;;5024378;28;20222;-48
2023/04/02 06:52:33;;;;;;;11.68;8.88;;;6.00;99.90;;;;;;4991387;28;20261;-47
2023/04/02 06:54:59;;;;;;;12.07;9.10;;;6.00;99.90;;;;;;4991202;28;20663;-47
2023/04/02 06:57:25;;;;;;;14.38;9.98;;;6.00;99.90;;;;;;4991357;28;20179;-49
2023/04/02 06:59:51;;;;;;;8.00;6.00;;;6.00;99.90;;;;;;4991433;28;20264;-47
2023/04/02 07:02:23;;;;;;;12.70;8.55;;;6.00;99.90;;;;;;4980070;28;20230;-47
2023/04/02 07:04:49;;;;;;;10.02;5.97;;;5.90;99.90;;;;;;4971951;28;20184;-48
2023/04/02 07:07:15;;;;;;;16.50;9.25;;;;;;;;;;4972030;28;20169;-49
2023/04/02 07:09:41;;;;;;;12.95;9.30;;;6.00;99.90;;;;;;4968486;28;20312;-47
2023/04/02 07:12:11;;;;;;;11.43;8.05;;;6.00;99.90;;;;;;4970895;28;20347;-45
2023/04/02 07:14:36;;;;;;;10.82;7.15;;;5.90;99.90;;;;;;4971135;28;20193;-51
2023/04/02 07:17:02;;;;;;;10.95;7.05;;;;;;;;;;4970414;28;20228;-51
2023/04/02 07:19:28;;;;;;;11.70;7.50;;;;;;;;;;4983507;28;20237;-49
2023/04/02 07:21:54;;;;;;;12.93;6.20;;;5.90;99.90;;;;;;4978031;28;20177;-49
2023/04/02 07:24:20;;;;;;;13.05;8.35;;;6.00;99.90;;;;;;4981791;28;20303;-47
2023/04/02 07:26:46;;;;;;;11.02;8.27;;;6.20;99.90;;;;;;4990105;28;20180;-49
2023/04/02 07:29:14;;;;;;;11.05;8.20;;;6.10;99.90;;;;;;4984011;28;20262;-48
2023/04/02 07:31:40;;;;;;;13.20;9.20;;;;;;;;;;4970659;28;20266;-48
2023/04/02 07:34:06;;;;;;;10.93;8.07;;;6.30;99.90;;;;;;4970765;28;20177;-51
2023/04/02 07:36:32;;;;;;;9.30;7.07;;;6.20;99.90;;;;;;4970116;28;20166;-52
2023/04/02 07:38:58;;;;;;;9.20;5.65;;;6.30;99.90;;;;;;4970298;28;20178;-51
2023/04/02 07:41:23;;;;;;;5.88;4.00;;;6.30;99.90;;;;;;4970336;28;20523;-49
2023/04/02 07:43:50;;;;;;;7.07;4.15;;;;;;;;;;4989239;28;20184;-53
2023/04/02 07:46:16;;;;;;;9.10;6.07;;;6.40;99.90;;;;;;4989487;28;20218;-51
2023/04/02 07:48:43;;;;;;;12.38;8.82;;;6.40;99.90;;;;;;4988231;28;20587;-46
2023/04/02 07:51:19;;;;;;;14.48;10.60;;;6.40;99.90;;;;;;4989310;28;20597;-48
2023/04/02 07:53:48;;;;;;;13.85;10.88;;;6.30;99.90;;;;;;4972862;28;20543;-51
2023/04/02 07:56:15;;;;;;;15.27;9.52;;;6.40;99.90;;;;;;4970189;28;20173;-49
2023/04/02 07:58:41;;;;;;;18.20;10.07;;;;;;;;;;4969657;28;20173;-50
2023/04/02 08:01:22;;;;;;;15.25;9.73;;;6.20;99.90;;;;;;4969243;28;20169;-52
2023/04/02 08:03:48;;;;;;;12.68;9.38;;;;;;;;;;4969900;28;20177;-48
2023/04/02 08:06:14;;;;;;;13.40;8.63;;;6.20;99.90;;;;;;4969668;28;20259;-51
2023/04/02 08:08:40;;;;;;;14.95;9.68;;;6.20;99.90;;;;;;4969566;28;20228;-48
2023/04/02 08:11:07;;;;;;;15.82;10.55;;;6.30;99.90;;;;;;4970126;28;20197;-46
2023/04/02 08:13:33;;;;;;;17.15;9.90;;;6.20;99.90;;;;;;4969819;28;20176;-45
2023/04/02 08:15:59;;;;;;;14.02;11.00;;;6.30;99.90;;;;;;4969846;28;20260;-45
2023/04/02 08:18:25;;;;;;;12.65;8.93;;;6.30;99.90;;;;;;4969714;28;20230;-45
2023/04/02 08:20:52;;;;;;;15.00;9.45;;;6.20;99.90;;;;;;4969567;28;20162;-45
2023/04/02 08:23:17;;;;;;;13.23;9.95;;;6.30;99.90;;;;;;4969754;28;20185;-44
2023/04/02 08:25:46;;;;;;;14.82;9.00;;;6.30;99.90;;;;;;4969324;28;20622;-45
2023/04/02 08:28:12;;;;;;;12.93;9.60;;;;;;;;;;4968101;28;20227;-45
2023/04/02 08:30:38;;;;;;;9.10;6.93;;;6.30;99.90;;;;;;4969751;28;20166;-45
2023/04/02 08:33:04;;;;;;;13.50;8.25;;;6.30;99.90;;;;;;4969694;28;20192;-45
2023/04/02 08:35:30;;;;;;;12.50;6.63;;;6.20;99.90;;;;;;4969048;28;20180;-47
2023/04/02 08:37:56;;;;;;;10.05;5.93;;;;;;;;;;4969294;28;20170;-45
2023/04/02 08:40:38;;;;;;;6.90;5.43;;;6.20;99.90;;;;;;4969569;28;20176;-44
2023/04/02 08:43:36;;;;;;;9.55;4.90;;;6.30;99.90;;;;;;4968927;28;20554;-45
2023/04/02 08:46:27;;;;;;;11.68;6.07;;;6.30;99.90;;;;;;4969267;28;20181;-44
2023/04/02 08:48:56;;;;;;;7.07;5.85;;;6.40;99.90;;;;;;4968985;28;20177;-48
2023/04/02 08:51:25;;;;;;;8.32;5.35;;;6.40;99.90;;;;;;4968840;28;20208;-44
2023/04/02 08:53:54;;;;;;;6.10;4.10;;;6.40;99.90;;;;;;4968839;28;20170;-46
2023/04/02 08:56:40;;;;;;;5.75;3.95;;;6.40;99.90;;;;;;4969004;28;20176;-43
2023/04/02 08:59:14;;;;;;;10.95;5.38;;;6.30;99.90;;;;;;4969268;28;20644;-43
2023/04/02 09:01:57;;;;;;;5.78;4.10;;;6.20;99.90;;;;;;4968948;28;20619;-45
2023/04/02 09:04:25;;;;;;;5.57;4.28;;;6.10;99.90;;;;;;4982698;28;20177;-50
2023/04/02 09:06:54;;;;;;;6.55;4.15;;;6.10;99.90;;;;;;4988069;28;20184;-46
2023/04/02 09:09:21;;;;;;;5.13;3.70;;;6.20;99.90;;;;;;4988030;28;20695;-43
2023/04/02 09:11:47;;;;;;;5.43;3.38;;;;;;;;;;4987905;28;20216;-43
2023/04/02 09:14:18;;;;;;;5.88;4.45;;;6.30;99.90;;;;;;4988053;28;20180;-49
2023/04/02 09:16:46;;;;;;;7.45;4.68;;;6.30;99.90;;;;;;4988050;28;20628;-47
2023/04/02 09:19:28;;;;;;;11.20;4.47;;;6.30;99.90;;;;;;4987688;28;20196;-47
2023/04/02 09:22:19;;;;;;;3.78;3.30;;;6.40;99.90;;;;;;4988127;28;20179;-48
2023/04/02 09:24:57;;;;;;;5.38;4.15;;;6.40;99.90;;;;;;4987633;28;20164;-46
2023/04/02 09:27:39;;;;;;;6.55;4.03;;;6.40;99.90;;;;;;4987697;28;20643;-43
2023/04/02 09:30:28;;;;;;;6.38;4.18;;;6.50;99.90;;;;;;4987860;28;20169;-49
2023/04/02 09:33:08;;;;;;;6.25;4.32;;;6.70;99.90;;;;;;4982374;28;20233;-47
2023/04/02 09:35:57;;;;;;;6.78;4.20;;;6.70;99.90;;;;;;4968266;28;20212;-47
2023/04/02 09:38:30;;;;;;;5.38;4.13;;;6.80;99.90;;;;;;4968397;28;20637;-46
2023/04/02 09:40:58;;;;;;;5.00;3.22;;;6.70;99.90;;;;;;4966144;28;20174;-44
2023/04/02 09:43:35;;;;;;;5.55;4.25;;;6.70;99.90;;;;;;4967622;28;20200;-45
2023/04/02 09:46:01;;;;;;;5.50;3.45;;;6.80;99.90;;;;;;4967646;28;20165;-47
2023/04/02 09:48:45;;;;;;;6.05;3.33;;;6.80;99.90;;;;;;4968604;28;20189;-44
2023/04/02 09:51:19;;;;;;;4.53;4.00;;;7.00;99.90;;;;;;4967936;28;20205;-44
2023/04/02 09:53:48;;;;;;;6.13;4.10;;;7.00;99.90;;;;;;4967109;28;20246;-43
2023/04/02 09:56:21;;;;;;;5.75;3.47;;;6.90;99.90;;;;;;4968319;28;20248;-42
2023/04/02 09:59:14;;;;;;;8.15;3.38;;;7.00;99.90;;;;;;4968273;28;20169;-43
2023/04/02 10:01:43;;;;;;;6.70;4.20;;;6.80;99.90;;;;;;4967262;28;20176;-44
2023/04/02 10:04:46;;;;;;;7.07;3.58;;;6.80;99.90;;;;;;4982444;28;20207;-42
2023/04/02 10:07:37;;;;;;;4.78;2.88;;;6.60;99.90;;;;;;4987763;28;20922;-42
2023/04/02 10:10:40;;;;;;;7.07;3.58;;;6.60;99.90;;;;;;4987649;28;20202;-42
2023/04/02 10:13:25;;;;;;;6.65;3.67;;;6.90;99.90;;;;;;5047522;28;20221;-43
2023/04/02 10:15:58;;;;;;;5.75;3.50;;;6.80;99.90;;;;;;4990712;28;20652;-42
2023/04/02 10:18:50;;;;;;;3.15;2.70;;;6.80;99.90;;;;;;4987787;28;20235;-42
2023/04/02 10:21:26;;;;;;;3.03;2.55;;;7.00;99.90;;;;;;4987552;28;20218;-43
2023/04/02 10:23:52;;;;;;;3.65;2.70;;;7.10;99.90;;;;;;4987355;28;20237;-42
2023/04/02 10:26:47;;;;;;;5.30;2.45;;;6.90;99.90;;;;;;4987662;28;20655;-42
2023/04/02 10:29:40;;;;;;;3.80;2.78;;;7.10;99.90;;;;;;4987197;28;20171;-44
2023/04/02 10:32:27;;;;;;;4.15;3.05;;;7.10;99.90;;;;;;4985745;28;20227;-43
2023/04/02 10:35:31;;;;;;;5.95;3.38;;;7.20;99.90;;;;;;4966385;28;20644;-46
2023/04/02 10:38:28;;;;;;;3.85;2.67;;;7.30;99.90;;;;;;4967652;28;20182;-43
2023/04/02 10:41:01;;;;;;;8.57;3.40;;;7.20;99.90;;;;;;4967256;28;20161;-44
2023/04/02 10:43:33;;;;;;;5.45;3.25;;;7.20;99.90;;;;;;4967690;28;20185;-44
2023/04/02 10:46:26;;;;;;;4.47;2.60;;;7.20;99.90;;;;;;4967551;28;20170;-46
2023/04/02 10:49:22;;;;;;;6.32;2.63;;;7.20;99.90;;;;;;4967733;28;20169;-47
2023/04/02 10:51:58;;;;;;;4.50;2.80;;;7.40;99.90;;;;;;4967763;28;20225;-48
2023/04/02 10:54:51;;;;;;;5.57;3.35;;;7.40;99.90;;;;;;4986138;28;20314;-47
2023/04/02 10:57:36;;;;;;;5.72;3.38;;;7.50;99.90;;;;;;4979151;28;20184;-45
2023/04/02 11:00:17;;;;;;;4.90;2.92;;;7.50;99.90;;;;;;4971071;28;20169;-41
2023/04/02 11:03:17;;;;;;;5.03;2.88;;;7.50;99.90;;;;;;4970901;28;20180;-46
2023/04/02 11:05:47;;;;;;;4.70;3.08;;;7.40;99.90;;;;;;4970793;28;20585;-45
2023/04/02 11:08:21;;;;;;;4.88;2.85;;;7.40;99.90;;;;;;4969886;28;20295;-44
2023/04/02 11:10:59;;;;;;;3.88;2.53;;;7.40;99.90;;;;;;4950794;28;20197;-41
2023/04/02 11:13:41;;;;;;;7.95;3.20;;;7.50;99.90;;;;;;4984337;28;20591;-42
2023/04/02 11:16:07;;;;;;;5.35;2.95;;;7.60;99.90;;;;;;4981419;28;20177;-41
2023/04/02 11:18:37;;;;;;;6.93;3.25;;;7.60;99.90;;;;;;4970205;28;20543;-42
2023/04/02 11:21:03;;;;;;;5.40;3.22;;;;;;;;;;4970178;28;20165;-41
2023/04/02 11:23:52;;;;;;;3.70;2.42;;;7.70;99.90;;;;;;4970144;28;20675;-42
2023/04/02 11:26:29;;;;;;;4.15;2.83;;;7.70;99.90;;;;;;4970217;28;20235;-42
2023/04/02 11:29:17;;;;;;;3.97;2.92;;;7.80;99.90;;;;;;4969010;28;20174;-42
2023/04/02 11:31:44;;;;;;;3.17;2.78;;;7.90;99.90;;;;;;4970275;28;20224;-44
2023/04/02 11:34:34;;;;;;;3.33;2.08;;;7.60;99.90;;;;;;4980966;28;20571;-42
2023/04/02 11:37:02;;;;;;;4.72;2.28;;;7.50;99.90;;;;;;4984297;28;20185;-43
2023/04/02 11:39:53;;;;;;;4.28;2.58;;;7.70;99.90;;;;;;4970093;28;20199;-42
2023/04/02 11:42:36;;;;;;;4.07;2.33;;;7.70;99.90;;;;;;4988488;28;20267;-43
2023/04/02 11:45:20;;;;;;;3.75;3.08;;;7.90;99.90;;;;;;4989926;28;20169;-45
2023/04/02 11:48:02;;;;;;;3.22;2.47;;;7.70;99.90;;;;;;4985496;28;20308;-43
2023/04/02 11:50:38;;;;;;;4.28;2.60;;;7.50;99.90;;;;;;4989338;28;20184;-44
2023/04/02 11:53:10;;;;;;;7.03;3.00;;;7.70;99.90;;;;;;4990448;28;20235;-41
2023/04/02 11:55:54;;;;;;;6.90;3.10;;;7.80;99.90;;;;;;4977973;28;20223;-43
2023/04/02 11:58:40;;;;;;;4.57;2.78;;;8.00;99.90;;;;;;4974531;28;20576;-44
2023/04/02 12:01:13;;;;;;;3.30;2.17;;;;;;;;;;4970910;28;20204;-40
2023/04/02 12:04:09;;;;;;;7.10;2.95;;;7.80;99.90;;;;;;4976340;28;20184;-41
2023/04/02 12:06:46;;;;;;;3.28;2.67;;;7.80;99.90;;;;;;4990242;28;20656;-43
2023/04/02 12:09:23;;;;;;;4.80;2.50;;;7.70;99.90;;;;;;4989225;28;20254;-40
2023/04/02 12:11:54;;;;;;;6.50;2.72;;;7.80;99.90;;;;;;4972903;28;20208;-40
2023/04/02 12:14:46;;;;;;;4.82;2.40;;;7.80;99.90;;;;;;4970253;28;20170;-40
2023/04/02 12:17:36;;;;;;;3.15;2.33;;;7.80;99.90;;;;;;4971944;28;20198;-41
2023/04/02 12:20:08;;;;;;;8.63;3.00;;;7.90;99.90;;;;;;4970498;28;20205;-40
2023/04/02 12:22:38;;;;;;;7.60;2.40;;;7.80;99.90;;;;;;4986342;28;20181;-40
2023/04/02 12:25:17;;;;;;;3.90;2.05;;;7.90;99.90;;;;;;4989752;28;20187;-41
2023/04/02 12:27:45;;;;;;;6.57;3.30;;;;;;;;;;4989890;28;20169;-40
2023/04/02 12:30:20;;;;;;;6.47;3.38;;;8.00;99.90;;;;;;4983476;28;20181;-41
2023/04/02 12:32:46;;;;;;;3.10;2.42;;;7.90;99.90;;;;;;4970896;28;20236;-40
2023/04/02 12:35:32;;;;;;;3.05;2.55;;;8.00;99.90;;;;;;4970259;28;20261;-41
2023/04/02 12:37:58;;;;;;;5.57;2.92;;;8.00;99.90;;;;;;4969950;28;20181;-41
2023/04/02 12:40:25;;;;;;;4.63;2.70;;;8.00;99.90;;;;;;4977242;28;20180;-42
2023/04/02 12:42:50;;;;;;;3.85;2.80;;;8.10;99.90;;;;;;4989732;28;20165;-42
2023/04/02 12:45:35;;;;;;;3.92;2.47;;;8.10;99.90;;;;;;4972524;28;20170;-42
2023/04/02 12:48:04;;;;;;;5.03;2.22;;;8.10;99.90;;;;;;4970548;28;20170;-41
2023/04/02 12:50:32;;;;;;;3.17;2.50;;;8.00;99.90;;;;;;4968773;28;20186;-41
2023/04/02 12:52:59;;;;;;;5.13;2.80;;;8.00;99.90;;;;;;4970171;28;20209;-42
2023/04/02 12:55:26;;;;;;;3.97;2.28;;;8.00;99.90;;;;;;4970063;28;20505;-42
2023/04/02 12:57:58;;;;;;;2.20;1.88;;;8.00;99.90;;;;;;4955181;28;20189;-41
2023/04/02 13:00:24;;;;;;;3.42;2.08;;;8.00;99.90;;;;;;4951247;28;20517;-43
2023/04/02 13:03:04;;;;;;;4.85;2.70;;;8.00;99.90;;;;;;4950809;28;20170;-41
2023/04/02 13:05:45;;;;;;;3.10;2.58;;;8.20;99.90;;;;;;4950882;28;20167;-42
2023/04/02 13:08:39;;;;;;;3.65;1.92;;;8.00;99.90;;;;;;4950675;28;20708;-41
2023/04/02 13:11:05;;;;;;;4.80;2.60;;;8.10;99.90;;;;;;4977082;28;20557;-42
2023/04/02 13:13:39;;;;;;;3.92;2.13;;;8.10;99.90;;;;;;4988994;28;20177;-43
2023/04/02 13:16:05;;;;;;;4.55;2.70;;;;;;;;;;4989898;28;20190;-41
2023/04/02 13:18:33;;;;;;;1.92;1.60;;;8.00;99.90;;;;;;4988555;28;20168;-43
2023/04/02 13:21:01;;;;;;;2.50;1.63;;;8.00;99.90;;;;;;4970177;28;20544;-40
2023/04/02 13:23:30;;;;;;;2.33;2.05;;;8.00;99.90;;;;;;4970121;28;20265;-42
2023/04/02 13:25:58;;;;;;;5.38;2.45;;;8.10;99.90;;;;;;4970111;28;20166;-40
2023/04/02 13:28:24;;;;;;;6.55;2.13;;;8.00;99.90;;;;;;4969752;28;20166;-43
2023/04/02 13:30:50;;;;;;;6.18;2.13;;;8.00;99.90;;;;;;4969730;28;20269;-42
2023/04/02 13:33:16;;;;;;;3.63;2.45;;;;;;;;;;4969298;28;20190;-43
2023/04/02 13:35:42;;;;;;;3.17;2.42;;;8.10;99.90;;;;;;4968498;28;20215;-45
2023/04/02 13:38:09;;;;;;;4.50;2.00;;;;;;;;;;4970054;28;20246;-43
2023/04/02 13:40:36;;;;;;;2.40;1.83;;;8.10;99.90;;;;;;4978121;28;20175;-44